sensor_id;sensor_type;location;lat;lon;timestamp;P1;durP1;ratioP1;P2;durP2;ratioP2
6249;SDS011;3158;52.148;11.568;2023-04-06T00:01:59;1.67;;;1.52;;
6249;SDS011;3158;52.148;11.568;2023-04-06T00:07:00;1.80;;;1.23;;
6249;SDS011;3158;52.148;11.568;2023-04-06T00:12:01;1.60;;;1.50;;
6249;SDS011;3158;52.148;11.568;2023-04-06T00:17:02;1.40;;;1.40;;
6249;SDS011;3158;52.148;11.568;2023-04-06T00:22:03;1.95;;;1.58;;
6249;SDS011;3158;52.148;11.568;2023-04-06T00:27:04;1.80;;;1.45;;
6249;SDS011;3158;52.148;11.568;2023-04-06T00:32:05;1.95;;;1.50;;
6249;SDS011;3158;52.148;11.568;2023-04-06T00:37:06;1.80;;;1.70;;
6249;SDS011;3158;52.148;11.568;2023-04-06T00:42:10;3.07;;;1.70;;
6249;SDS011;3158;52.148;11.568;2023-04-06T00:47:13;1.40;;;1.40;;
6249;SDS011;3158;52.148;11.568;2023-04-06T00:52:15;1.98;;;1.58;;
6249;SDS011;3158;52.148;11.568;2023-04-06T00:57:19;1.85;;;1.42;;
6249;SDS011;3158;52.148;11.568;2023-04-06T01:02:25;2.45;;;1.85;;
6249;SDS011;3158;52.148;11.568;2023-04-06T01:07:27;1.85;;;1.40;;
6249;SDS011;3158;52.148;11.568;2023-04-06T01:12:43;3.30;;;1.50;;
6249;SDS011;3158;52.148;11.568;2023-04-06T01:17:53;1.48;;;1.48;;
6249;SDS011;3158;52.148;11.568;2023-04-06T01:22:54;1.37;;;1.27;;
6249;SDS011;3158;52.148;11.568;2023-04-06T01:27:55;4.25;;;1.30;;
6249;SDS011;3158;52.148;11.568;2023-04-06T01:33:15;1.52;;;1.50;;
6249;SDS011;3158;52.148;11.568;2023-04-06T01:38:32;3.13;;;1.20;;
6249;SDS011;3158;52.148;11.568;2023-04-06T01:43:33;2.13;;;1.23;;
6249;SDS011;3158;52.148;11.568;2023-04-06T01:48:38;4.80;;;1.50;;
6249;SDS011;3158;52.148;11.568;2023-04-06T01:54:02;2.10;;;2.00;;
6249;SDS011;3158;52.148;11.568;2023-04-06T01:59:27;3.70;;;1.60;;
6249;SDS011;3158;52.148;11.568;2023-04-06T02:04:28;1.80;;;1.60;;
6249;SDS011;3158;52.148;11.568;2023-04-06T02:09:39;3.35;;;1.83;;
6249;SDS011;3158;52.148;11.568;2023-04-06T02:14:45;2.30;;;2.10;;
6249;SDS011;3158;52.148;11.568;2023-04-06T02:19:47;2.40;;;2.25;;
6249;SDS011;3158;52.148;11.568;2023-04-06T02:24:48;3.22;;;2.13;;
6249;SDS011;3158;52.148;11.568;2023-04-06T02:29:49;5.13;;;2.67;;
6249;SDS011;3158;52.148;11.568;2023-04-06T02:34:53;2.83;;;2.20;;
6249;SDS011;3158;52.148;11.568;2023-04-06T02:39:55;3.35;;;2.13;;
6249;SDS011;3158;52.148;11.568;2023-04-06T02:44:57;3.90;;;1.80;;
6249;SDS011;3158;52.148;11.568;2023-04-06T02:50:03;2.00;;;1.77;;
6249;SDS011;3158;52.148;11.568;2023-04-06T02:55:06;4.20;;;2.30;;
6249;SDS011;3158;52.148;11.568;2023-04-06T03:00:08;2.60;;;2.03;;
6249;SDS011;3158;52.148;11.568;2023-04-06T03:05:13;3.40;;;2.00;;
6249;SDS011;3158;52.148;11.568;2023-04-06T03:10:17;2.20;;;1.95;;
6249;SDS011;3158;52.148;11.568;2023-04-06T03:15:20;2.17;;;2.07;;
6249;SDS011;3158;52.148;11.568;2023-04-06T03:20:26;2.73;;;2.53;;
6249;SDS011;3158;52.148;11.568;2023-04-06T03:25:27;2.47;;;2.00;;
6249;SDS011;3158;52.148;11.568;2023-04-06T03:30:34;2.70;;;2.50;;
6249;SDS011;3158;52.148;11.568;2023-04-06T03:35:35;3.80;;;3.00;;
6249;SDS011;3158;52.148;11.568;2023-04-06T03:40:37;3.73;;;2.93;;
6249;SDS011;3158;52.148;11.568;2023-04-06T03:45:38;4.47;;;2.40;;
6249;SDS011;3158;52.148;11.568;2023-04-06T03:50:39;4.40;;;2.63;;
6249;SDS011;3158;52.148;11.568;2023-04-06T03:55:40;3.50;;;3.27;;
6249;SDS011;3158;52.148;11.568;2023-04-06T04:00:41;4.10;;;2.80;;
6249;SDS011;3158;52.148;11.568;2023-04-06T04:05:42;2.70;;;2.50;;
6249;SDS011;3158;52.148;11.568;2023-04-06T04:10:44;3.77;;;3.23;;
6249;SDS011;3158;52.148;11.568;2023-04-06T04:15:46;6.57;;;3.17;;
6249;SDS011;3158;52.148;11.568;2023-04-06T04:20:49;3.27;;;2.87;;
6249;SDS011;3158;52.148;11.568;2023-04-06T04:25:53;5.83;;;3.27;;
6249;SDS011;3158;52.148;11.568;2023-04-06T04:30:54;5.27;;;3.07;;
6249;SDS011;3158;52.148;11.568;2023-04-06T04:35:56;3.43;;;3.17;;
6249;SDS011;3158;52.148;11.568;2023-04-06T04:41:02;4.73;;;3.20;;
6249;SDS011;3158;52.148;11.568;2023-04-06T04:46:04;2.80;;;2.60;;
6249;SDS011;3158;52.148;11.568;2023-04-06T04:51:12;4.37;;;3.20;;
6249;SDS011;3158;52.148;11.568;2023-04-06T04:56:38;4.03;;;3.03;;
6249;SDS011;3158;52.148;11.568;2023-04-06T05:02:02;5.07;;;3.47;;
6249;SDS011;3158;52.148;11.568;2023-04-06T05:07:13;5.13;;;3.70;;
6249;SDS011;3158;52.148;11.568;2023-04-06T05:12:15;6.45;;;3.92;;
6249;SDS011;3158;52.148;11.568;2023-04-06T05:17:26;4.47;;;3.37;;
6249;SDS011;3158;52.148;11.568;2023-04-06T05:22:28;3.63;;;3.33;;
6249;SDS011;3158;52.148;11.568;2023-04-06T05:27:39;7.33;;;3.43;;
6249;SDS011;3158;52.148;11.568;2023-04-06T05:32:49;7.90;;;4.23;;
6249;SDS011;3158;52.148;11.568;2023-04-06T05:37:52;4.90;;;3.60;;
6249;SDS011;3158;52.148;11.568;2023-04-06T05:42:57;5.87;;;4.13;;
6249;SDS011;3158;52.148;11.568;2023-04-06T05:47:58;5.37;;;4.17;;
6249;SDS011;3158;52.148;11.568;2023-04-06T05:53:03;4.53;;;3.53;;
6249;SDS011;3158;52.148;11.568;2023-04-06T05:58:11;4.95;;;4.55;;
6249;SDS011;3158;52.148;11.568;2023-04-06T06:03:12;6.10;;;3.67;;
6249;SDS011;3158;52.148;11.568;2023-04-06T06:08:19;4.70;;;4.28;;
6249;SDS011;3158;52.148;11.568;2023-04-06T06:13:23;6.07;;;4.17;;
6249;SDS011;3158;52.148;11.568;2023-04-06T06:18:24;9.90;;;4.80;;
6249;SDS011;3158;52.148;11.568;2023-04-06T06:23:27;5.35;;;4.50;;
6249;SDS011;3158;52.148;11.568;2023-04-06T06:28:28;5.10;;;4.53;;
6249;SDS011;3158;52.148;11.568;2023-04-06T06:33:30;6.53;;;4.40;;
6249;SDS011;3158;52.148;11.568;2023-04-06T06:38:32;5.28;;;4.35;;
6249;SDS011;3158;52.148;11.568;2023-04-06T06:43:33;6.72;;;4.03;;
6249;SDS011;3158;52.148;11.568;2023-04-06T06:48:40;6.18;;;4.72;;
6249;SDS011;3158;52.148;11.568;2023-04-06T06:53:41;10.63;;;3.28;;
6249;SDS011;3158;52.148;11.568;2023-04-06T06:58:42;6.13;;;3.88;;
6249;SDS011;3158;52.148;11.568;2023-04-06T07:03:43;4.20;;;3.78;;
6249;SDS011;3158;52.148;11.568;2023-04-06T07:08:44;3.47;;;2.72;;
6249;SDS011;3158;52.148;11.568;2023-04-06T07:13:45;5.10;;;3.20;;
6249;SDS011;3158;52.148;11.568;2023-04-06T07:18:46;6.95;;;3.58;;
6249;SDS011;3158;52.148;11.568;2023-04-06T07:23:47;5.70;;;3.35;;
6249;SDS011;3158;52.148;11.568;2023-04-06T07:28:50;3.92;;;3.20;;
6249;SDS011;3158;52.148;11.568;2023-04-06T07:33:52;5.68;;;3.53;;
6249;SDS011;3158;52.148;11.568;2023-04-06T07:38:54;2.75;;;2.55;;
6249;SDS011;3158;52.148;11.568;2023-04-06T07:43:56;2.88;;;2.78;;
6249;SDS011;3158;52.148;11.568;2023-04-06T07:48:58;2.60;;;2.50;;
6249;SDS011;3158;52.148;11.568;2023-04-06T07:54:02;3.85;;;3.55;;
6249;SDS011;3158;52.148;11.568;2023-04-06T07:59:04;4.90;;;3.63;;
6249;SDS011;3158;52.148;11.568;2023-04-06T08:04:05;4.63;;;3.85;;
6249;SDS011;3158;52.148;11.568;2023-04-06T08:09:06;6.45;;;4.20;;
6249;SDS011;3158;52.148;11.568;2023-04-06T08:14:07;4.38;;;3.97;;
6249;SDS011;3158;52.148;11.568;2023-04-06T08:19:08;7.03;;;4.53;;
6249;SDS011;3158;52.148;11.568;2023-04-06T08:24:09;5.97;;;4.20;;
6249;SDS011;3158;52.148;11.568;2023-04-06T08:29:10;4.07;;;3.78;;
6249;SDS011;3158;52.148;11.568;2023-04-06T08:34:11;4.85;;;4.28;;
6249;SDS011;3158;52.148;11.568;2023-04-06T08:39:12;5.15;;;3.85;;
6249;SDS011;3158;52.148;11.568;2023-04-06T08:44:13;4.80;;;4.38;;
6249;SDS011;3158;52.148;11.568;2023-04-06T08:49:14;4.65;;;3.80;;
6249;SDS011;3158;52.148;11.568;2023-04-06T08:54:16;4.63;;;4.30;;
6249;SDS011;3158;52.148;11.568;2023-04-06T08:59:17;8.75;;;3.78;;
6249;SDS011;3158;52.148;11.568;2023-04-06T09:04:18;4.40;;;4.10;;
6249;SDS011;3158;52.148;11.568;2023-04-06T09:09:19;4.20;;;3.90;;
6249;SDS011;3158;52.148;11.568;2023-04-06T09:14:38;5.45;;;4.82;;
6249;SDS011;3158;52.148;11.568;2023-04-06T09:19:46;5.82;;;5.00;;
6249;SDS011;3158;52.148;11.568;2023-04-06T09:24:51;4.38;;;4.10;;
6249;SDS011;3158;52.148;11.568;2023-04-06T09:30:01;4.57;;;4.18;;
6249;SDS011;3158;52.148;11.568;2023-04-06T09:35:06;4.78;;;4.38;;
6249;SDS011;3158;52.148;11.568;2023-04-06T09:40:07;4.55;;;4.30;;
6249;SDS011;3158;52.148;11.568;2023-04-06T09:45:08;6.45;;;5.00;;
6249;SDS011;3158;52.148;11.568;2023-04-06T09:50:11;6.60;;;5.05;;
6249;SDS011;3158;52.148;11.568;2023-04-06T09:55:12;6.13;;;4.80;;
6249;SDS011;3158;52.148;11.568;2023-04-06T10:00:17;4.45;;;4.13;;
6249;SDS011;3158;52.148;11.568;2023-04-06T10:05:24;4.72;;;3.80;;
6249;SDS011;3158;52.148;11.568;2023-04-06T10:10:26;5.70;;;4.38;;
6249;SDS011;3158;52.148;11.568;2023-04-06T10:15:28;5.18;;;4.78;;
6249;SDS011;3158;52.148;11.568;2023-04-06T10:20:38;5.88;;;5.38;;
6249;SDS011;3158;52.148;11.568;2023-04-06T10:25:40;5.30;;;4.45;;
6249;SDS011;3158;52.148;11.568;2023-04-06T10:30:58;4.75;;;4.35;;
6249;SDS011;3158;52.148;11.568;2023-04-06T10:36:15;3.75;;;3.55;;
6249;SDS011;3158;52.148;11.568;2023-04-06T10:41:16;4.63;;;4.25;;
6249;SDS011;3158;52.148;11.568;2023-04-06T10:46:24;5.20;;;4.43;;
6249;SDS011;3158;52.148;11.568;2023-04-06T10:51:28;6.00;;;4.30;;
6249;SDS011;3158;52.148;11.568;2023-04-06T10:56:29;4.97;;;4.45;;
6249;SDS011;3158;52.148;11.568;2023-04-06T11:01:31;4.60;;;4.20;;
6249;SDS011;3158;52.148;11.568;2023-04-06T11:06:33;5.03;;;4.43;;
6249;SDS011;3158;52.148;11.568;2023-04-06T11:11:34;6.80;;;4.40;;
6249;SDS011;3158;52.148;11.568;2023-04-06T11:16:39;5.22;;;4.82;;
6249;SDS011;3158;52.148;11.568;2023-04-06T11:21:42;4.63;;;4.25;;
6249;SDS011;3158;52.148;11.568;2023-04-06T11:26:46;5.07;;;4.68;;
6249;SDS011;3158;52.148;11.568;2023-04-06T11:31:49;4.68;;;4.38;;
6249;SDS011;3158;52.148;11.568;2023-04-06T11:37:00;5.70;;;5.18;;
6249;SDS011;3158;52.148;11.568;2023-04-06T11:42:07;5.65;;;5.35;;
6249;SDS011;3158;52.148;11.568;2023-04-06T11:47:10;5.00;;;4.70;;
6249;SDS011;3158;52.148;11.568;2023-04-06T11:52:18;8.80;;;6.15;;
6249;SDS011;3158;52.148;11.568;2023-04-06T11:57:20;6.05;;;5.28;;
6249;SDS011;3158;52.148;11.568;2023-04-06T12:02:23;6.65;;;6.05;;
6249;SDS011;3158;52.148;11.568;2023-04-06T12:07:24;7.18;;;6.47;;
6249;SDS011;3158;52.148;11.568;2023-04-06T12:12:25;6.30;;;5.80;;
6249;SDS011;3158;52.148;11.568;2023-04-06T12:17:26;5.70;;;5.30;;
6249;SDS011;3158;52.148;11.568;2023-04-06T12:22:27;6.40;;;5.57;;
6249;SDS011;3158;52.148;11.568;2023-04-06T12:27:28;5.93;;;5.43;;
6249;SDS011;3158;52.148;11.568;2023-04-06T12:32:29;6.55;;;5.95;;
6249;SDS011;3158;52.148;11.568;2023-04-06T12:37:30;5.25;;;4.93;;
6249;SDS011;3158;52.148;11.568;2023-04-06T12:42:31;6.03;;;5.50;;
6249;SDS011;3158;52.148;11.568;2023-04-06T12:47:32;5.50;;;5.10;;
6249;SDS011;3158;52.148;11.568;2023-04-06T12:52:33;4.72;;;4.40;;
6249;SDS011;3158;52.148;11.568;2023-04-06T12:57:35;5.28;;;4.88;;
6249;SDS011;3158;52.148;11.568;2023-04-06T13:02:37;4.63;;;4.30;;
6249;SDS011;3158;52.148;11.568;2023-04-06T13:07:38;5.53;;;5.13;;
6249;SDS011;3158;52.148;11.568;2023-04-06T13:12:39;5.07;;;4.68;;
6249;SDS011;3158;52.148;11.568;2023-04-06T13:17:40;4.93;;;4.57;;
6249;SDS011;3158;52.148;11.568;2023-04-06T13:22:41;5.13;;;4.82;;
6249;SDS011;3158;52.148;11.568;2023-04-06T13:27:42;9.95;;;5.32;;
6249;SDS011;3158;52.148;11.568;2023-04-06T13:32:46;4.70;;;4.40;;
6249;SDS011;3158;52.148;11.568;2023-04-06T13:37:47;4.68;;;4.30;;
6249;SDS011;3158;52.148;11.568;2023-04-06T13:42:48;50.30;;;7.80;;
6249;SDS011;3158;52.148;11.568;2023-04-06T13:47:50;6.57;;;5.15;;
6249;SDS011;3158;52.148;11.568;2023-04-06T13:52:52;5.13;;;4.72;;
6249;SDS011;3158;52.148;11.568;2023-04-06T13:57:53;5.50;;;4.97;;
6249;SDS011;3158;52.148;11.568;2023-04-06T14:02:55;5.43;;;4.82;;
6249;SDS011;3158;52.148;11.568;2023-04-06T14:07:56;4.88;;;4.47;;
6249;SDS011;3158;52.148;11.568;2023-04-06T14:12:57;5.20;;;4.32;;
6249;SDS011;3158;52.148;11.568;2023-04-06T14:17:58;5.32;;;4.93;;
6249;SDS011;3158;52.148;11.568;2023-04-06T14:23:00;5.53;;;4.70;;
6249;SDS011;3158;52.148;11.568;2023-04-06T14:28:01;4.43;;;4.22;;
6249;SDS011;3158;52.148;11.568;2023-04-06T14:33:02;4.63;;;4.43;;
6249;SDS011;3158;52.148;11.568;2023-04-06T14:38:04;4.38;;;4.07;;
6249;SDS011;3158;52.148;11.568;2023-04-06T14:43:05;5.82;;;4.85;;
6249;SDS011;3158;52.148;11.568;2023-04-06T14:48:06;4.40;;;4.15;;
6249;SDS011;3158;52.148;11.568;2023-04-06T14:53:08;5.80;;;5.10;;
6249;SDS011;3158;52.148;11.568;2023-04-06T14:58:10;4.60;;;4.20;;
6249;SDS011;3158;52.148;11.568;2023-04-06T15:03:11;4.18;;;3.88;;
6249;SDS011;3158;52.148;11.568;2023-04-06T15:08:12;6.05;;;5.40;;
6249;SDS011;3158;52.148;11.568;2023-04-06T15:13:15;5.60;;;4.50;;
6249;SDS011;3158;52.148;11.568;2023-04-06T15:18:16;5.10;;;4.70;;
6249;SDS011;3158;52.148;11.568;2023-04-06T15:23:17;5.20;;;4.70;;
6249;SDS011;3158;52.148;11.568;2023-04-06T15:28:18;4.78;;;4.47;;
6249;SDS011;3158;52.148;11.568;2023-04-06T15:33:19;4.22;;;3.80;;
6249;SDS011;3158;52.148;11.568;2023-04-06T15:38:20;7.28;;;5.00;;
6249;SDS011;3158;52.148;11.568;2023-04-06T15:43:22;4.45;;;4.10;;
6249;SDS011;3158;52.148;11.568;2023-04-06T15:48:23;5.53;;;4.93;;
6249;SDS011;3158;52.148;11.568;2023-04-06T15:53:26;6.20;;;4.70;;
6249;SDS011;3158;52.148;11.568;2023-04-06T15:58:27;4.25;;;4.00;;
6249;SDS011;3158;52.148;11.568;2023-04-06T16:03:28;4.40;;;4.00;;
6249;SDS011;3158;52.148;11.568;2023-04-06T16:08:29;4.97;;;4.65;;
6249;SDS011;3158;52.148;11.568;2023-04-06T16:13:30;4.97;;;4.50;;
6249;SDS011;3158;52.148;11.568;2023-04-06T16:18:31;7.78;;;4.63;;
6249;SDS011;3158;52.148;11.568;2023-04-06T16:23:32;5.03;;;4.50;;
6249;SDS011;3158;52.148;11.568;2023-04-06T16:28:33;4.68;;;4.38;;
6249;SDS011;3158;52.148;11.568;2023-04-06T16:33:34;4.30;;;4.00;;
6249;SDS011;3158;52.148;11.568;2023-04-06T16:38:35;5.25;;;4.47;;
6249;SDS011;3158;52.148;11.568;2023-04-06T16:43:36;4.50;;;4.20;;
6249;SDS011;3158;52.148;11.568;2023-04-06T16:48:37;7.85;;;4.63;;
6249;SDS011;3158;52.148;11.568;2023-04-06T16:53:38;4.00;;;3.55;;
6249;SDS011;3158;52.148;11.568;2023-04-06T16:58:39;3.80;;;3.70;;
6249;SDS011;3158;52.148;11.568;2023-04-06T17:03:40;7.68;;;4.55;;
6249;SDS011;3158;52.148;11.568;2023-04-06T17:08:43;3.80;;;3.40;;
6249;SDS011;3158;52.148;11.568;2023-04-06T17:13:44;4.10;;;3.70;;
6249;SDS011;3158;52.148;11.568;2023-04-06T17:18:48;4.80;;;4.30;;
6249;SDS011;3158;52.148;11.568;2023-04-06T17:23:49;7.97;;;3.55;;
6249;SDS011;3158;52.148;11.568;2023-04-06T17:28:50;4.40;;;4.00;;
6249;SDS011;3158;52.148;11.568;2023-04-06T17:33:51;3.90;;;3.60;;
6249;SDS011;3158;52.148;11.568;2023-04-06T17:38:52;6.35;;;4.65;;
6249;SDS011;3158;52.148;11.568;2023-04-06T17:43:53;5.10;;;4.50;;
6249;SDS011;3158;52.148;11.568;2023-04-06T17:48:54;5.18;;;4.70;;
6249;SDS011;3158;52.148;11.568;2023-04-06T17:53:55;4.85;;;4.50;;
6249;SDS011;3158;52.148;11.568;2023-04-06T17:58:56;6.00;;;4.90;;
6249;SDS011;3158;52.148;11.568;2023-04-06T18:03:57;6.65;;;5.85;;
6249;SDS011;3158;52.148;11.568;2023-04-06T18:08:58;6.60;;;5.90;;
6249;SDS011;3158;52.148;11.568;2023-04-06T18:14:00;7.78;;;6.15;;
6249;SDS011;3158;52.148;11.568;2023-04-06T18:19:05;6.53;;;5.93;;
6249;SDS011;3158;52.148;11.568;2023-04-06T18:24:06;5.72;;;5.28;;
6249;SDS011;3158;52.148;11.568;2023-04-06T18:29:07;6.00;;;4.93;;
6249;SDS011;3158;52.148;11.568;2023-04-06T18:34:09;5.80;;;5.30;;
6249;SDS011;3158;52.148;11.568;2023-04-06T18:39:10;6.80;;;6.10;;
6249;SDS011;3158;52.148;11.568;2023-04-06T18:44:11;6.05;;;5.55;;
6249;SDS011;3158;52.148;11.568;2023-04-06T18:49:12;6.20;;;5.68;;
6249;SDS011;3158;52.148;11.568;2023-04-06T18:54:13;5.70;;;5.20;;
6249;SDS011;3158;52.148;11.568;2023-04-06T18:59:14;5.97;;;5.38;;
6249;SDS011;3158;52.148;11.568;2023-04-06T19:04:16;7.18;;;5.60;;
6249;SDS011;3158;52.148;11.568;2023-04-06T19:09:17;6.47;;;5.95;;
6249;SDS011;3158;52.148;11.568;2023-04-06T19:14:18;6.38;;;5.78;;
6249;SDS011;3158;52.148;11.568;2023-04-06T19:19:19;6.40;;;4.90;;
6249;SDS011;3158;52.148;11.568;2023-04-06T19:24:20;5.72;;;5.20;;
6249;SDS011;3158;52.148;11.568;2023-04-06T19:29:21;6.32;;;5.72;;
6249;SDS011;3158;52.148;11.568;2023-04-06T19:34:22;6.40;;;4.97;;
6249;SDS011;3158;52.148;11.568;2023-04-06T19:39:23;5.93;;;5.32;;
6249;SDS011;3158;52.148;11.568;2023-04-06T19:44:25;6.40;;;5.80;;
6249;SDS011;3158;52.148;11.568;2023-04-06T19:49:26;5.70;;;5.30;;
6249;SDS011;3158;52.148;11.568;2023-04-06T19:54:27;6.40;;;5.85;;
6249;SDS011;3158;52.148;11.568;2023-04-06T19:59:28;6.22;;;5.10;;
6249;SDS011;3158;52.148;11.568;2023-04-06T20:04:29;6.35;;;5.55;;
6249;SDS011;3158;52.148;11.568;2023-04-06T20:09:30;6.07;;;5.07;;
6249;SDS011;3158;52.148;11.568;2023-04-06T20:14:31;12.00;;;6.35;;
6249;SDS011;3158;52.148;11.568;2023-04-06T20:19:33;8.15;;;6.68;;
6249;SDS011;3158;52.148;11.568;2023-04-06T20:24:34;7.15;;;6.07;;
6249;SDS011;3158;52.148;11.568;2023-04-06T20:29:35;7.25;;;6.15;;
6249;SDS011;3158;52.148;11.568;2023-04-06T20:34:36;5.72;;;5.32;;
6249;SDS011;3158;52.148;11.568;2023-04-06T20:39:37;6.93;;;5.55;;
6249;SDS011;3158;52.148;11.568;2023-04-06T20:44:38;6.78;;;6.18;;
6249;SDS011;3158;52.148;11.568;2023-04-06T20:49:39;6.30;;;5.70;;
6249;SDS011;3158;52.148;11.568;2023-04-06T20:54:40;8.40;;;5.97;;
6249;SDS011;3158;52.148;11.568;2023-04-06T20:59:41;6.80;;;6.15;;
6249;SDS011;3158;52.148;11.568;2023-04-06T21:04:44;8.60;;;6.78;;
6249;SDS011;3158;52.148;11.568;2023-04-06T21:09:45;8.45;;;6.30;;
6249;SDS011;3158;52.148;11.568;2023-04-06T21:14:46;7.25;;;6.45;;
6249;SDS011;3158;52.148;11.568;2023-04-06T21:19:47;6.82;;;6.18;;
6249;SDS011;3158;52.148;11.568;2023-04-06T21:24:48;7.15;;;6.30;;
6249;SDS011;3158;52.148;11.568;2023-04-06T21:29:49;6.55;;;5.95;;
6249;SDS011;3158;52.148;11.568;2023-04-06T21:34:50;8.57;;;6.57;;
6249;SDS011;3158;52.148;11.568;2023-04-06T21:39:51;9.07;;;6.65;;
6249;SDS011;3158;52.148;11.568;2023-04-06T21:44:55;7.80;;;7.10;;
6249;SDS011;3158;52.148;11.568;2023-04-06T21:49:56;9.10;;;7.30;;
6249;SDS011;3158;52.148;11.568;2023-04-06T21:54:58;7.97;;;7.22;;
6249;SDS011;3158;52.148;11.568;2023-04-06T21:59:59;9.32;;;7.32;;
6249;SDS011;3158;52.148;11.568;2023-04-06T22:05:00;9.77;;;7.63;;
6249;SDS011;3158;52.148;11.568;2023-04-06T22:10:01;13.02;;;6.97;;
6249;SDS011;3158;52.148;11.568;2023-04-06T22:15:02;8.90;;;6.93;;
6249;SDS011;3158;52.148;11.568;2023-04-06T22:20:03;9.13;;;7.40;;
6249;SDS011;3158;52.148;11.568;2023-04-06T22:25:04;9.48;;;7.13;;
6249;SDS011;3158;52.148;11.568;2023-04-06T22:30:05;7.68;;;6.88;;
6249;SDS011;3158;52.148;11.568;2023-04-06T22:35:07;9.93;;;7.55;;
6249;SDS011;3158;52.148;11.568;2023-04-06T22:40:11;9.85;;;7.32;;
6249;SDS011;3158;52.148;11.568;2023-04-06T22:45:12;8.30;;;7.25;;
6249;SDS011;3158;52.148;11.568;2023-04-06T22:50:13;9.30;;;7.82;;
6249;SDS011;3158;52.148;11.568;2023-04-06T22:55:15;8.45;;;7.18;;
6249;SDS011;3158;52.148;11.568;2023-04-06T23:00:16;9.20;;;6.68;;
6249;SDS011;3158;52.148;11.568;2023-04-06T23:05:17;11.57;;;7.70;;
6249;SDS011;3158;52.148;11.568;2023-04-06T23:10:18;10.63;;;7.45;;
6249;SDS011;3158;52.148;11.568;2023-04-06T23:15:20;7.35;;;6.65;;
6249;SDS011;3158;52.148;11.568;2023-04-06T23:20:21;9.63;;;7.53;;
6249;SDS011;3158;52.148;11.568;2023-04-06T23:25:22;8.88;;;7.22;;
6249;SDS011;3158;52.148;11.568;2023-04-06T23:30:23;11.45;;;7.00;;
6249;SDS011;3158;52.148;11.568;2023-04-06T23:35:24;11.68;;;7.85;;
6249;SDS011;3158;52.148;11.568;2023-04-06T23:40:25;8.70;;;6.72;;
6249;SDS011;3158;52.148;11.568;2023-04-06T23:45:26;9.85;;;7.60;;
6249;SDS011;3158;52.148;11.568;2023-04-06T23:50:27;9.05;;;6.95;;
6249;SDS011;3158;52.148;11.568;2023-04-06T23:55:28;7.55;;;6.65;;
